sensor_id;sensor_type;location;lat;lon;timestamp;P1;durP1;ratioP1;P2;durP2;ratioP2
33690;SDS011;20026;50.058;18.428;2022-12-07T00:01:05;66.43;;;32.55;;
33690;SDS011;20026;50.058;18.428;2022-12-07T00:03:31;64.18;;;31.60;;
33690;SDS011;20026;50.058;18.428;2022-12-07T00:05:57;61.90;;;30.23;;
33690;SDS011;20026;50.058;18.428;2022-12-07T00:08:23;66.47;;;32.42;;
33690;SDS011;20026;50.058;18.428;2022-12-07T00:10:49;69.05;;;32.83;;
33690;SDS011;20026;50.058;18.428;2022-12-07T00:13:15;68.15;;;32.90;;
33690;SDS011;20026;50.058;18.428;2022-12-07T00:15:41;87.75;;;39.55;;
33690;SDS011;20026;50.058;18.428;2022-12-07T00:18:07;64.35;;;31.35;;
33690;SDS011;20026;50.058;18.428;2022-12-07T00:20:33;65.18;;;31.45;;
33690;SDS011;20026;50.058;18.428;2022-12-07T00:22:59;167.57;;;81.88;;
33690;SDS011;20026;50.058;18.428;2022-12-07T00:25:25;80.97;;;37.72;;
33690;SDS011;20026;50.058;18.428;2022-12-07T00:27:52;92.00;;;45.08;;
33690;SDS011;20026;50.058;18.428;2022-12-07T00:30:21;80.85;;;35.75;;
33690;SDS011;20026;50.058;18.428;2022-12-07T00:32:47;72.28;;;35.10;;
33690;SDS011;20026;50.058;18.428;2022-12-07T00:35:13;71.70;;;33.63;;
33690;SDS011;20026;50.058;18.428;2022-12-07T00:37:39;69.63;;;33.85;;
33690;SDS011;20026;50.058;18.428;2022-12-07T00:40:06;73.13;;;35.10;;
33690;SDS011;20026;50.058;18.428;2022-12-07T00:42:32;68.90;;;34.55;;
33690;SDS011;20026;50.058;18.428;2022-12-07T00:44:58;68.45;;;32.35;;
33690;SDS011;20026;50.058;18.428;2022-12-07T00:47:24;67.28;;;32.22;;
33690;SDS011;20026;50.058;18.428;2022-12-07T00:49:50;70.70;;;34.70;;
33690;SDS011;20026;50.058;18.428;2022-12-07T00:52:16;72.38;;;35.10;;
33690;SDS011;20026;50.058;18.428;2022-12-07T00:54:42;74.50;;;35.95;;
33690;SDS011;20026;50.058;18.428;2022-12-07T00:57:08;75.78;;;37.17;;
33690;SDS011;20026;50.058;18.428;2022-12-07T00:59:34;69.68;;;35.13;;
33690;SDS011;20026;50.058;18.428;2022-12-07T01:02:00;69.97;;;33.17;;
33690;SDS011;20026;50.058;18.428;2022-12-07T01:04:26;64.88;;;32.63;;
33690;SDS011;20026;50.058;18.428;2022-12-07T01:06:52;67.85;;;33.50;;
33690;SDS011;20026;50.058;18.428;2022-12-07T01:09:18;71.10;;;34.10;;
33690;SDS011;20026;50.058;18.428;2022-12-07T01:11:44;67.88;;;34.08;;
33690;SDS011;20026;50.058;18.428;2022-12-07T01:14:10;63.25;;;33.38;;
33690;SDS011;20026;50.058;18.428;2022-12-07T01:16:36;68.40;;;33.13;;
33690;SDS011;20026;50.058;18.428;2022-12-07T01:19:04;65.25;;;32.85;;
33690;SDS011;20026;50.058;18.428;2022-12-07T01:21:32;69.75;;;33.72;;
33690;SDS011;20026;50.058;18.428;2022-12-07T01:24:03;69.22;;;33.67;;
33690;SDS011;20026;50.058;18.428;2022-12-07T01:26:29;62.20;;;31.50;;
33690;SDS011;20026;50.058;18.428;2022-12-07T01:28:55;72.45;;;32.97;;
33690;SDS011;20026;50.058;18.428;2022-12-07T01:31:24;69.72;;;34.75;;
33690;SDS011;20026;50.058;18.428;2022-12-07T01:33:51;71.57;;;32.40;;
33690;SDS011;20026;50.058;18.428;2022-12-07T01:36:19;71.18;;;32.92;;
33690;SDS011;20026;50.058;18.428;2022-12-07T01:38:45;72.85;;;33.60;;
33690;SDS011;20026;50.058;18.428;2022-12-07T01:41:12;71.13;;;34.28;;
33690;SDS011;20026;50.058;18.428;2022-12-07T01:46:23;65.50;;;32.95;;
33690;SDS011;20026;50.058;18.428;2022-12-07T01:48:49;76.05;;;34.83;;
33690;SDS011;20026;50.058;18.428;2022-12-07T01:51:15;76.05;;;35.42;;
33690;SDS011;20026;50.058;18.428;2022-12-07T01:53:42;71.13;;;35.15;;
33690;SDS011;20026;50.058;18.428;2022-12-07T01:56:09;70.82;;;34.38;;
33690;SDS011;20026;50.058;18.428;2022-12-07T01:58:36;70.10;;;33.60;;
33690;SDS011;20026;50.058;18.428;2022-12-07T02:01:02;68.03;;;34.42;;
33690;SDS011;20026;50.058;18.428;2022-12-07T02:03:32;71.40;;;35.13;;
33690;SDS011;20026;50.058;18.428;2022-12-07T02:06:00;71.53;;;34.78;;
33690;SDS011;20026;50.058;18.428;2022-12-07T02:08:26;71.30;;;35.53;;
33690;SDS011;20026;50.058;18.428;2022-12-07T02:10:52;72.47;;;35.63;;
33690;SDS011;20026;50.058;18.428;2022-12-07T02:13:19;73.22;;;34.55;;
33690;SDS011;20026;50.058;18.428;2022-12-07T02:18:38;72.32;;;35.45;;
33690;SDS011;20026;50.058;18.428;2022-12-07T02:31:20;75.72;;;36.10;;
33690;SDS011;20026;50.058;18.428;2022-12-07T02:33:50;74.97;;;38.08;;
33690;SDS011;20026;50.058;18.428;2022-12-07T02:36:25;87.95;;;45.28;;
33690;SDS011;20026;50.058;18.428;2022-12-07T02:38:57;88.50;;;45.33;;
33690;SDS011;20026;50.058;18.428;2022-12-07T02:41:37;120.55;;;48.78;;
33690;SDS011;20026;50.058;18.428;2022-12-07T02:44:16;116.82;;;48.03;;
33690;SDS011;20026;50.058;18.428;2022-12-07T02:46:51;121.72;;;50.38;;
33690;SDS011;20026;50.058;18.428;2022-12-07T02:49:18;107.13;;;50.80;;
33690;SDS011;20026;50.058;18.428;2022-12-07T02:51:45;88.20;;;43.08;;
33690;SDS011;20026;50.058;18.428;2022-12-07T02:54:12;89.63;;;42.88;;
33690;SDS011;20026;50.058;18.428;2022-12-07T03:04:32;70.78;;;37.35;;
33690;SDS011;20026;50.058;18.428;2022-12-07T03:07:02;65.72;;;35.50;;
33690;SDS011;20026;50.058;18.428;2022-12-07T03:09:36;58.63;;;32.13;;
33690;SDS011;20026;50.058;18.428;2022-12-07T03:14:36;65.93;;;34.95;;
33690;SDS011;20026;50.058;18.428;2022-12-07T03:17:27;61.63;;;34.13;;
33690;SDS011;20026;50.058;18.428;2022-12-07T03:19:53;81.28;;;37.53;;
33690;SDS011;20026;50.058;18.428;2022-12-07T03:22:20;80.30;;;36.47;;
33690;SDS011;20026;50.058;18.428;2022-12-07T03:24:49;80.63;;;36.95;;
33690;SDS011;20026;50.058;18.428;2022-12-07T03:27:21;71.63;;;35.60;;
33690;SDS011;20026;50.058;18.428;2022-12-07T03:29:53;79.65;;;39.15;;
33690;SDS011;20026;50.058;18.428;2022-12-07T03:32:23;73.55;;;36.22;;
33690;SDS011;20026;50.058;18.428;2022-12-07T03:35:01;74.85;;;36.63;;
33690;SDS011;20026;50.058;18.428;2022-12-07T03:39:58;54.83;;;27.08;;
33690;SDS011;20026;50.058;18.428;2022-12-07T03:42:27;48.67;;;25.92;;
33690;SDS011;20026;50.058;18.428;2022-12-07T03:44:53;43.75;;;24.60;;
33690;SDS011;20026;50.058;18.428;2022-12-07T03:47:26;45.10;;;24.10;;
33690;SDS011;20026;50.058;18.428;2022-12-07T03:49:55;45.67;;;24.58;;
33690;SDS011;20026;50.058;18.428;2022-12-07T03:52:24;53.05;;;27.88;;
33690;SDS011;20026;50.058;18.428;2022-12-07T03:57:16;48.45;;;25.25;;
33690;SDS011;20026;50.058;18.428;2022-12-07T03:59:43;54.70;;;25.85;;
33690;SDS011;20026;50.058;18.428;2022-12-07T04:02:09;80.38;;;33.40;;
33690;SDS011;20026;50.058;18.428;2022-12-07T04:04:36;70.43;;;29.23;;
33690;SDS011;20026;50.058;18.428;2022-12-07T04:07:02;60.97;;;27.27;;
33690;SDS011;20026;50.058;18.428;2022-12-07T04:09:29;55.35;;;28.00;;
33690;SDS011;20026;50.058;18.428;2022-12-07T04:11:55;59.55;;;26.10;;
33690;SDS011;20026;50.058;18.428;2022-12-07T04:14:21;64.40;;;28.98;;
33690;SDS011;20026;50.058;18.428;2022-12-07T04:16:48;56.53;;;27.95;;
33690;SDS011;20026;50.058;18.428;2022-12-07T04:19:14;69.78;;;31.02;;
33690;SDS011;20026;50.058;18.428;2022-12-07T04:21:41;72.70;;;37.30;;
33690;SDS011;20026;50.058;18.428;2022-12-07T04:24:07;59.53;;;34.03;;
33690;SDS011;20026;50.058;18.428;2022-12-07T04:26:33;55.38;;;29.48;;
33690;SDS011;20026;50.058;18.428;2022-12-07T04:28:59;52.25;;;30.40;;
33690;SDS011;20026;50.058;18.428;2022-12-07T04:31:25;58.53;;;31.75;;
33690;SDS011;20026;50.058;18.428;2022-12-07T04:33:51;73.00;;;41.35;;
33690;SDS011;20026;50.058;18.428;2022-12-07T04:36:17;77.95;;;39.95;;
33690;SDS011;20026;50.058;18.428;2022-12-07T04:38:44;89.63;;;48.78;;
33690;SDS011;20026;50.058;18.428;2022-12-07T04:41:10;70.68;;;40.35;;
33690;SDS011;20026;50.058;18.428;2022-12-07T04:43:36;70.95;;;38.55;;
33690;SDS011;20026;50.058;18.428;2022-12-07T04:46:03;76.70;;;41.15;;
33690;SDS011;20026;50.058;18.428;2022-12-07T04:48:29;71.78;;;37.65;;
33690;SDS011;20026;50.058;18.428;2022-12-07T04:50:55;77.93;;;38.47;;
33690;SDS011;20026;50.058;18.428;2022-12-07T04:53:21;72.65;;;38.28;;
33690;SDS011;20026;50.058;18.428;2022-12-07T04:55:47;98.55;;;46.60;;
33690;SDS011;20026;50.058;18.428;2022-12-07T04:58:13;163.30;;;68.47;;
33690;SDS011;20026;50.058;18.428;2022-12-07T05:00:39;185.63;;;79.43;;
33690;SDS011;20026;50.058;18.428;2022-12-07T05:03:05;221.00;;;88.90;;
33690;SDS011;20026;50.058;18.428;2022-12-07T05:05:31;462.13;;;178.38;;
33690;SDS011;20026;50.058;18.428;2022-12-07T05:07:57;497.75;;;188.55;;
33690;SDS011;20026;50.058;18.428;2022-12-07T05:10:23;692.47;;;270.15;;
33690;SDS011;20026;50.058;18.428;2022-12-07T05:12:49;307.92;;;114.40;;
33690;SDS011;20026;50.058;18.428;2022-12-07T05:15:15;290.98;;;106.35;;
33690;SDS011;20026;50.058;18.428;2022-12-07T05:17:41;168.45;;;67.32;;
33690;SDS011;20026;50.058;18.428;2022-12-07T05:20:08;542.08;;;195.75;;
33690;SDS011;20026;50.058;18.428;2022-12-07T05:22:34;508.42;;;179.55;;
33690;SDS011;20026;50.058;18.428;2022-12-07T05:25:00;286.58;;;108.68;;
33690;SDS011;20026;50.058;18.428;2022-12-07T05:27:26;356.60;;;128.23;;
33690;SDS011;20026;50.058;18.428;2022-12-07T05:29:52;608.90;;;255.45;;
33690;SDS011;20026;50.058;18.428;2022-12-07T05:32:18;279.80;;;115.05;;
33690;SDS011;20026;50.058;18.428;2022-12-07T05:34:44;282.98;;;124.07;;
33690;SDS011;20026;50.058;18.428;2022-12-07T05:37:10;207.10;;;97.32;;
33690;SDS011;20026;50.058;18.428;2022-12-07T05:39:36;183.32;;;82.75;;
33690;SDS011;20026;50.058;18.428;2022-12-07T05:42:05;190.93;;;81.47;;
33690;SDS011;20026;50.058;18.428;2022-12-07T05:44:38;184.25;;;78.82;;
33690;SDS011;20026;50.058;18.428;2022-12-07T05:47:04;195.48;;;81.28;;
33690;SDS011;20026;50.058;18.428;2022-12-07T05:49:30;190.80;;;79.65;;
33690;SDS011;20026;50.058;18.428;2022-12-07T05:51:56;207.13;;;89.75;;
33690;SDS011;20026;50.058;18.428;2022-12-07T05:54:22;187.43;;;79.15;;
33690;SDS011;20026;50.058;18.428;2022-12-07T05:56:48;187.70;;;79.00;;
33690;SDS011;20026;50.058;18.428;2022-12-07T05:59:14;194.75;;;82.40;;
33690;SDS011;20026;50.058;18.428;2022-12-07T06:01:52;217.07;;;95.50;;
33690;SDS011;20026;50.058;18.428;2022-12-07T06:06:44;153.98;;;72.50;;
33690;SDS011;20026;50.058;18.428;2022-12-07T06:09:10;136.75;;;66.85;;
33690;SDS011;20026;50.058;18.428;2022-12-07T06:11:37;103.72;;;52.47;;
33690;SDS011;20026;50.058;18.428;2022-12-07T06:14:22;103.32;;;51.65;;
33690;SDS011;20026;50.058;18.428;2022-12-07T06:16:48;107.95;;;54.67;;
33690;SDS011;20026;50.058;18.428;2022-12-07T06:19:14;94.60;;;47.25;;
33690;SDS011;20026;50.058;18.428;2022-12-07T06:21:40;88.88;;;44.70;;
33690;SDS011;20026;50.058;18.428;2022-12-07T06:24:06;90.03;;;42.42;;
33690;SDS011;20026;50.058;18.428;2022-12-07T06:26:32;86.25;;;41.72;;
33690;SDS011;20026;50.058;18.428;2022-12-07T06:28:58;86.57;;;41.63;;
33690;SDS011;20026;50.058;18.428;2022-12-07T06:31:24;91.90;;;43.17;;
33690;SDS011;20026;50.058;18.428;2022-12-07T06:33:50;97.60;;;44.10;;
33690;SDS011;20026;50.058;18.428;2022-12-07T06:36:16;99.78;;;46.97;;
33690;SDS011;20026;50.058;18.428;2022-12-07T06:38:42;98.55;;;47.50;;
33690;SDS011;20026;50.058;18.428;2022-12-07T06:41:08;96.13;;;47.10;;
33690;SDS011;20026;50.058;18.428;2022-12-07T06:43:34;96.72;;;45.78;;
33690;SDS011;20026;50.058;18.428;2022-12-07T06:46:00;118.90;;;53.50;;
33690;SDS011;20026;50.058;18.428;2022-12-07T06:48:26;121.53;;;59.10;;
33690;SDS011;20026;50.058;18.428;2022-12-07T06:50:52;133.27;;;57.20;;
33690;SDS011;20026;50.058;18.428;2022-12-07T06:53:18;139.48;;;63.35;;
33690;SDS011;20026;50.058;18.428;2022-12-07T06:55:44;144.85;;;66.80;;
33690;SDS011;20026;50.058;18.428;2022-12-07T06:58:10;149.25;;;68.15;;
33690;SDS011;20026;50.058;18.428;2022-12-07T07:00:36;149.82;;;67.25;;
33690;SDS011;20026;50.058;18.428;2022-12-07T07:03:02;150.20;;;65.95;;
33690;SDS011;20026;50.058;18.428;2022-12-07T07:05:28;134.38;;;63.50;;
33690;SDS011;20026;50.058;18.428;2022-12-07T07:07:54;142.23;;;65.93;;
33690;SDS011;20026;50.058;18.428;2022-12-07T07:10:20;138.73;;;66.72;;
33690;SDS011;20026;50.058;18.428;2022-12-07T07:12:46;130.32;;;62.60;;
33690;SDS011;20026;50.058;18.428;2022-12-07T07:15:12;139.05;;;62.33;;
33690;SDS011;20026;50.058;18.428;2022-12-07T07:17:38;137.63;;;65.18;;
33690;SDS011;20026;50.058;18.428;2022-12-07T07:20:04;143.38;;;72.40;;
33690;SDS011;20026;50.058;18.428;2022-12-07T07:22:30;161.45;;;80.15;;
33690;SDS011;20026;50.058;18.428;2022-12-07T07:24:56;279.25;;;116.40;;
33690;SDS011;20026;50.058;18.428;2022-12-07T07:27:22;357.35;;;140.18;;
33690;SDS011;20026;50.058;18.428;2022-12-07T07:29:48;389.52;;;153.02;;
33690;SDS011;20026;50.058;18.428;2022-12-07T07:32:14;342.63;;;145.25;;
33690;SDS011;20026;50.058;18.428;2022-12-07T07:34:40;253.18;;;114.72;;
33690;SDS011;20026;50.058;18.428;2022-12-07T07:37:06;317.85;;;138.98;;
33690;SDS011;20026;50.058;18.428;2022-12-07T07:39:32;292.33;;;131.60;;
33690;SDS011;20026;50.058;18.428;2022-12-07T07:41:58;261.00;;;116.63;;
33690;SDS011;20026;50.058;18.428;2022-12-07T07:44:24;206.50;;;98.38;;
33690;SDS011;20026;50.058;18.428;2022-12-07T07:46:50;127.55;;;63.33;;
33690;SDS011;20026;50.058;18.428;2022-12-07T07:49:16;107.93;;;56.80;;
33690;SDS011;20026;50.058;18.428;2022-12-07T07:51:42;99.28;;;51.20;;
33690;SDS011;20026;50.058;18.428;2022-12-07T07:54:08;91.88;;;48.15;;
33690;SDS011;20026;50.058;18.428;2022-12-07T07:56:34;98.85;;;48.47;;
33690;SDS011;20026;50.058;18.428;2022-12-07T07:59:00;112.45;;;54.75;;
33690;SDS011;20026;50.058;18.428;2022-12-07T08:01:26;223.70;;;114.28;;
33690;SDS011;20026;50.058;18.428;2022-12-07T08:03:52;159.82;;;78.45;;
33690;SDS011;20026;50.058;18.428;2022-12-07T08:06:18;204.00;;;114.07;;
33690;SDS011;20026;50.058;18.428;2022-12-07T08:08:44;188.82;;;110.97;;
33690;SDS011;20026;50.058;18.428;2022-12-07T08:11:09;394.40;;;197.63;;
33690;SDS011;20026;50.058;18.428;2022-12-07T08:13:36;438.52;;;219.88;;
33690;SDS011;20026;50.058;18.428;2022-12-07T08:16:06;479.15;;;241.45;;
33690;SDS011;20026;50.058;18.428;2022-12-07T08:18:37;478.45;;;222.65;;
33690;SDS011;20026;50.058;18.428;2022-12-07T08:21:04;329.95;;;163.00;;
33690;SDS011;20026;50.058;18.428;2022-12-07T08:23:30;170.52;;;86.38;;
33690;SDS011;20026;50.058;18.428;2022-12-07T08:26:00;193.93;;;108.85;;
33690;SDS011;20026;50.058;18.428;2022-12-07T08:28:26;201.27;;;110.85;;
33690;SDS011;20026;50.058;18.428;2022-12-07T08:30:57;170.57;;;101.43;;
33690;SDS011;20026;50.058;18.428;2022-12-07T08:33:23;122.90;;;76.05;;
33690;SDS011;20026;50.058;18.428;2022-12-07T08:35:50;100.25;;;60.65;;
33690;SDS011;20026;50.058;18.428;2022-12-07T08:38:15;84.30;;;56.28;;
33690;SDS011;20026;50.058;18.428;2022-12-07T08:40:41;68.25;;;43.78;;
33690;SDS011;20026;50.058;18.428;2022-12-07T08:43:07;60.28;;;39.88;;
33690;SDS011;20026;50.058;18.428;2022-12-07T08:45:33;51.00;;;32.05;;
33690;SDS011;20026;50.058;18.428;2022-12-07T08:48:06;64.38;;;39.78;;
33690;SDS011;20026;50.058;18.428;2022-12-07T08:50:35;75.38;;;46.97;;
33690;SDS011;20026;50.058;18.428;2022-12-07T08:53:01;75.82;;;45.13;;
33690;SDS011;20026;50.058;18.428;2022-12-07T08:55:28;87.72;;;50.95;;
33690;SDS011;20026;50.058;18.428;2022-12-07T08:57:54;80.75;;;45.97;;
33690;SDS011;20026;50.058;18.428;2022-12-07T09:00:20;78.15;;;45.90;;
33690;SDS011;20026;50.058;18.428;2022-12-07T09:02:46;67.30;;;38.00;;
33690;SDS011;20026;50.058;18.428;2022-12-07T09:05:13;84.88;;;45.83;;
33690;SDS011;20026;50.058;18.428;2022-12-07T09:07:42;78.22;;;46.28;;
33690;SDS011;20026;50.058;18.428;2022-12-07T09:10:08;85.07;;;47.17;;
33690;SDS011;20026;50.058;18.428;2022-12-07T09:12:34;117.32;;;59.92;;
33690;SDS011;20026;50.058;18.428;2022-12-07T09:15:01;136.88;;;67.68;;
33690;SDS011;20026;50.058;18.428;2022-12-07T09:17:27;134.60;;;63.92;;
33690;SDS011;20026;50.058;18.428;2022-12-07T09:19:53;141.15;;;68.22;;
33690;SDS011;20026;50.058;18.428;2022-12-07T09:22:19;136.20;;;71.68;;
33690;SDS011;20026;50.058;18.428;2022-12-07T09:24:45;107.30;;;58.38;;
33690;SDS011;20026;50.058;18.428;2022-12-07T09:27:11;116.00;;;62.90;;
33690;SDS011;20026;50.058;18.428;2022-12-07T09:29:38;122.93;;;65.25;;
33690;SDS011;20026;50.058;18.428;2022-12-07T09:32:04;86.63;;;45.67;;
33690;SDS011;20026;50.058;18.428;2022-12-07T09:34:30;72.97;;;41.85;;
33690;SDS011;20026;50.058;18.428;2022-12-07T09:36:57;96.78;;;59.00;;
33690;SDS011;20026;50.058;18.428;2022-12-07T09:39:23;64.93;;;38.00;;
33690;SDS011;20026;50.058;18.428;2022-12-07T09:41:49;55.33;;;31.30;;
33690;SDS011;20026;50.058;18.428;2022-12-07T09:44:20;57.25;;;36.83;;
33690;SDS011;20026;50.058;18.428;2022-12-07T09:46:47;41.40;;;25.00;;
33690;SDS011;20026;50.058;18.428;2022-12-07T09:49:16;35.05;;;25.50;;
33690;SDS011;20026;50.058;18.428;2022-12-07T09:51:43;26.20;;;17.92;;
33690;SDS011;20026;50.058;18.428;2022-12-07T09:54:12;29.92;;;19.15;;
33690;SDS011;20026;50.058;18.428;2022-12-07T09:56:38;24.13;;;14.37;;
33690;SDS011;20026;50.058;18.428;2022-12-07T09:59:04;19.80;;;13.90;;
33690;SDS011;20026;50.058;18.428;2022-12-07T10:01:31;30.20;;;19.25;;
33690;SDS011;20026;50.058;18.428;2022-12-07T10:04:05;24.40;;;15.10;;
33690;SDS011;20026;50.058;18.428;2022-12-07T10:06:32;28.98;;;18.35;;
33690;SDS011;20026;50.058;18.428;2022-12-07T10:08:58;30.85;;;19.80;;
33690;SDS011;20026;50.058;18.428;2022-12-07T10:11:24;30.65;;;19.45;;
33690;SDS011;20026;50.058;18.428;2022-12-07T10:13:51;30.48;;;19.83;;
33690;SDS011;20026;50.058;18.428;2022-12-07T10:18:51;60.83;;;31.02;;
33690;SDS011;20026;50.058;18.428;2022-12-07T10:21:19;44.15;;;25.25;;
33690;SDS011;20026;50.058;18.428;2022-12-07T10:24:01;37.30;;;24.08;;
33690;SDS011;20026;50.058;18.428;2022-12-07T10:29:00;37.50;;;23.10;;
33690;SDS011;20026;50.058;18.428;2022-12-07T10:31:27;25.65;;;17.25;;
33690;SDS011;20026;50.058;18.428;2022-12-07T10:33:55;25.55;;;16.02;;
33690;SDS011;20026;50.058;18.428;2022-12-07T10:38:48;29.23;;;17.38;;
33690;SDS011;20026;50.058;18.428;2022-12-07T10:41:15;49.70;;;27.90;;
33690;SDS011;20026;50.058;18.428;2022-12-07T10:43:48;59.58;;;29.73;;
33690;SDS011;20026;50.058;18.428;2022-12-07T10:51:40;28.90;;;17.38;;
33690;SDS011;20026;50.058;18.428;2022-12-07T10:54:31;74.03;;;35.58;;
33690;SDS011;20026;50.058;18.428;2022-12-07T10:57:10;31.57;;;17.63;;
33690;SDS011;20026;50.058;18.428;2022-12-07T11:07:35;51.63;;;24.42;;
33690;SDS011;20026;50.058;18.428;2022-12-07T11:15:22;59.00;;;27.20;;
33690;SDS011;20026;50.058;18.428;2022-12-07T11:22:51;71.80;;;32.67;;
33690;SDS011;20026;50.058;18.428;2022-12-07T11:28:02;43.08;;;24.38;;
33690;SDS011;20026;50.058;18.428;2022-12-07T11:33:19;35.70;;;19.90;;
33690;SDS011;20026;50.058;18.428;2022-12-07T11:38:18;37.50;;;20.67;;
33690;SDS011;20026;50.058;18.428;2022-12-07T11:40:51;25.25;;;14.35;;
33690;SDS011;20026;50.058;18.428;2022-12-07T11:45:46;63.78;;;28.67;;
33690;SDS011;20026;50.058;18.428;2022-12-07T11:50:40;25.42;;;13.65;;
33690;SDS011;20026;50.058;18.428;2022-12-07T11:55:51;37.10;;;18.75;;
33690;SDS011;20026;50.058;18.428;2022-12-07T11:58:40;32.00;;;15.77;;
33690;SDS011;20026;50.058;18.428;2022-12-07T12:06:19;15.55;;;10.77;;
33690;SDS011;20026;50.058;18.428;2022-12-07T12:19:41;14.45;;;9.55;;
33690;SDS011;20026;50.058;18.428;2022-12-07T12:22:17;14.70;;;9.27;;
33690;SDS011;20026;50.058;18.428;2022-12-07T12:24:45;13.48;;;9.18;;
33690;SDS011;20026;50.058;18.428;2022-12-07T12:27:20;18.30;;;11.40;;
33690;SDS011;20026;50.058;18.428;2022-12-07T12:29:51;31.80;;;18.50;;
33690;SDS011;20026;50.058;18.428;2022-12-07T12:32:22;16.08;;;10.60;;
33690;SDS011;20026;50.058;18.428;2022-12-07T12:42:52;20.30;;;9.15;;
33690;SDS011;20026;50.058;18.428;2022-12-07T12:45:25;22.65;;;11.50;;
33690;SDS011;20026;50.058;18.428;2022-12-07T12:50:25;22.70;;;11.75;;
33690;SDS011;20026;50.058;18.428;2022-12-07T13:00:47;21.50;;;12.82;;
33690;SDS011;20026;50.058;18.428;2022-12-07T13:08:54;63.00;;;36.17;;
33690;SDS011;20026;50.058;18.428;2022-12-07T13:11:32;64.78;;;38.92;;
33690;SDS011;20026;50.058;18.428;2022-12-07T13:17:54;13.27;;;9.27;;
33690;SDS011;20026;50.058;18.428;2022-12-07T13:20:03;46.15;;;28.48;;
33690;SDS011;20026;50.058;18.428;2022-12-07T13:25:05;35.65;;;22.77;;
33690;SDS011;20026;50.058;18.428;2022-12-07T13:27:37;58.13;;;37.45;;
33690;SDS011;20026;50.058;18.428;2022-12-07T13:30:16;24.95;;;15.48;;
33690;SDS011;20026;50.058;18.428;2022-12-07T13:32:54;25.58;;;15.35;;
33690;SDS011;20026;50.058;18.428;2022-12-07T13:35:36;141.20;;;83.93;;
33690;SDS011;20026;50.058;18.428;2022-12-07T13:38:05;122.20;;;86.68;;
33690;SDS011;20026;50.058;18.428;2022-12-07T13:40:37;138.07;;;83.80;;
33690;SDS011;20026;50.058;18.428;2022-12-07T13:43:11;160.60;;;103.30;;
33690;SDS011;20026;50.058;18.428;2022-12-07T13:45:41;38.88;;;30.80;;
33690;SDS011;20026;50.058;18.428;2022-12-07T13:48:22;100.00;;;63.70;;
33690;SDS011;20026;50.058;18.428;2022-12-07T13:50:54;113.85;;;66.20;;
33690;SDS011;20026;50.058;18.428;2022-12-07T13:53:21;502.80;;;214.52;;
33690;SDS011;20026;50.058;18.428;2022-12-07T13:55:52;344.35;;;148.00;;
33690;SDS011;20026;50.058;18.428;2022-12-07T13:58:19;114.47;;;71.43;;
33690;SDS011;20026;50.058;18.428;2022-12-07T14:00:47;53.28;;;38.85;;
33690;SDS011;20026;50.058;18.428;2022-12-07T14:05:40;139.10;;;124.00;;
33690;SDS011;20026;50.058;18.428;2022-12-07T14:10:36;136.43;;;123.67;;
33690;SDS011;20026;50.058;18.428;2022-12-07T14:13:17;190.25;;;144.05;;
33690;SDS011;20026;50.058;18.428;2022-12-07T14:15:49;88.88;;;43.65;;
33690;SDS011;20026;50.058;18.428;2022-12-07T14:23:35;106.68;;;43.45;;
33690;SDS011;20026;50.058;18.428;2022-12-07T14:26:11;195.98;;;94.03;;
33690;SDS011;20026;50.058;18.428;2022-12-07T14:28:38;338.15;;;120.93;;
33690;SDS011;20026;50.058;18.428;2022-12-07T14:31:12;183.52;;;74.90;;
33690;SDS011;20026;50.058;18.428;2022-12-07T14:33:38;232.40;;;92.75;;
33690;SDS011;20026;50.058;18.428;2022-12-07T14:36:04;201.45;;;79.85;;
33690;SDS011;20026;50.058;18.428;2022-12-07T14:38:30;159.32;;;59.88;;
33690;SDS011;20026;50.058;18.428;2022-12-07T14:40:56;58.67;;;23.88;;
33690;SDS011;20026;50.058;18.428;2022-12-07T14:43:41;67.68;;;31.73;;
33690;SDS011;20026;50.058;18.428;2022-12-07T14:46:07;52.08;;;27.70;;
33690;SDS011;20026;50.058;18.428;2022-12-07T14:48:34;108.63;;;57.17;;
33690;SDS011;20026;50.058;18.428;2022-12-07T14:51:00;57.53;;;32.67;;
33690;SDS011;20026;50.058;18.428;2022-12-07T14:53:30;46.45;;;27.33;;
33690;SDS011;20026;50.058;18.428;2022-12-07T14:55:59;39.00;;;25.05;;
33690;SDS011;20026;50.058;18.428;2022-12-07T14:58:25;69.45;;;39.95;;
33690;SDS011;20026;50.058;18.428;2022-12-07T15:00:51;42.22;;;24.67;;
33690;SDS011;20026;50.058;18.428;2022-12-07T15:03:17;47.88;;;30.75;;
33690;SDS011;20026;50.058;18.428;2022-12-07T15:05:43;59.80;;;33.30;;
33690;SDS011;20026;50.058;18.428;2022-12-07T15:08:09;63.60;;;36.60;;
33690;SDS011;20026;50.058;18.428;2022-12-07T15:10:36;42.72;;;24.90;;
33690;SDS011;20026;50.058;18.428;2022-12-07T15:13:03;41.67;;;22.55;;
33690;SDS011;20026;50.058;18.428;2022-12-07T15:15:49;55.10;;;31.02;;
33690;SDS011;20026;50.058;18.428;2022-12-07T15:18:15;51.80;;;30.48;;
33690;SDS011;20026;50.058;18.428;2022-12-07T15:20:41;48.20;;;26.83;;
33690;SDS011;20026;50.058;18.428;2022-12-07T15:23:07;52.95;;;31.15;;
33690;SDS011;20026;50.058;18.428;2022-12-07T15:25:33;65.68;;;42.72;;
33690;SDS011;20026;50.058;18.428;2022-12-07T15:27:59;41.80;;;22.77;;
33690;SDS011;20026;50.058;18.428;2022-12-07T15:30:25;95.78;;;53.05;;
33690;SDS011;20026;50.058;18.428;2022-12-07T15:32:52;77.25;;;44.35;;
33690;SDS011;20026;50.058;18.428;2022-12-07T15:35:19;65.63;;;33.63;;
33690;SDS011;20026;50.058;18.428;2022-12-07T15:37:45;84.75;;;45.08;;
33690;SDS011;20026;50.058;18.428;2022-12-07T15:40:11;135.82;;;60.65;;
33690;SDS011;20026;50.058;18.428;2022-12-07T15:42:38;127.10;;;60.45;;
33690;SDS011;20026;50.058;18.428;2022-12-07T15:45:04;116.20;;;65.95;;
33690;SDS011;20026;50.058;18.428;2022-12-07T15:47:31;116.20;;;68.70;;
33690;SDS011;20026;50.058;18.428;2022-12-07T15:49:57;159.93;;;96.82;;
33690;SDS011;20026;50.058;18.428;2022-12-07T15:52:23;323.95;;;147.68;;
33690;SDS011;20026;50.058;18.428;2022-12-07T15:54:49;447.83;;;195.23;;
33690;SDS011;20026;50.058;18.428;2022-12-07T15:57:15;341.80;;;143.57;;
33690;SDS011;20026;50.058;18.428;2022-12-07T15:59:41;196.32;;;83.40;;
33690;SDS011;20026;50.058;18.428;2022-12-07T16:02:08;368.58;;;142.38;;
33690;SDS011;20026;50.058;18.428;2022-12-07T16:04:35;523.13;;;221.93;;
33690;SDS011;20026;50.058;18.428;2022-12-07T16:07:01;584.20;;;263.83;;
33690;SDS011;20026;50.058;18.428;2022-12-07T16:09:27;608.88;;;224.02;;
33690;SDS011;20026;50.058;18.428;2022-12-07T16:11:53;587.40;;;211.43;;
33690;SDS011;20026;50.058;18.428;2022-12-07T16:14:19;503.10;;;172.57;;
33690;SDS011;20026;50.058;18.428;2022-12-07T16:16:45;462.92;;;156.85;;
33690;SDS011;20026;50.058;18.428;2022-12-07T16:19:11;486.40;;;173.05;;
33690;SDS011;20026;50.058;18.428;2022-12-07T16:21:37;377.00;;;123.63;;
33690;SDS011;20026;50.058;18.428;2022-12-07T16:24:04;373.63;;;129.43;;